Time;durP1;ratioP1;P1;durP2;ratioP2;P2;SDS_P1;SDS_P2;PMS_P1;PMS_P2;Temp;Humidity;BMP_temperature;BMP_pressure;BME280_temperature;BME280_humidity;BME280_pressure;Samples;Min_cycle;Max_cycle;Signal;HPM_P1;HPM_P2
2023/04/20 00:00:50;;;;;;;67.38;9.18;;;;;;;;;;5073855;28;20584;-68
2023/04/20 00:03:20;;;;;;;66.55;9.07;;;;;;;;;;5074317;28;20215;-68
2023/04/20 00:05:48;;;;;;;66.40;7.90;;;;;;;;;;5074264;28;20749;-68
2023/04/20 00:08:16;;;;;;;65.18;8.50;;;;;;;;;;5073868;28;20209;-68
2023/04/20 00:10:43;;;;;;;62.00;7.95;;;;;;;;;;5073871;28;20211;-68
2023/04/20 00:13:12;;;;;;;62.63;8.18;;;;;;;;;;5073881;28;20237;-68
2023/04/20 00:15:39;;;;;;;61.72;7.30;;;;;;;;;;5073674;28;20240;-68
2023/04/20 00:18:06;;;;;;;62.22;8.02;;;;;;;;;;5073677;28;20213;-68
2023/04/20 00:20:34;;;;;;;63.38;7.75;;;;;;;;;;5073738;28;20236;-68
2023/04/20 00:23:01;;;;;;;62.30;6.97;;;;;;;;;;5074102;28;20209;-68
2023/04/20 00:25:29;;;;;;;61.75;7.00;;;;;;;;;;5073724;28;20673;-68
2023/04/20 00:27:56;;;;;;;64.22;8.40;;;;;;;;;;5073469;28;20708;-68
2023/04/20 00:30:25;;;;;;;64.03;8.63;;;;;;;;;;5073524;28;20229;-68
2023/04/20 00:32:52;;;;;;;62.67;7.60;;;;;;;;;;5073793;28;20580;-68
2023/04/20 00:35:19;;;;;;;65.80;9.93;;;;;;;;;;5073647;28;20233;-68
2023/04/20 00:37:46;;;;;;;65.30;9.45;;;;;;;;;;5073574;28;20603;-68
2023/04/20 00:40:13;;;;;;;65.55;10.32;;;;;;;;;;5073036;28;20225;-68
2023/04/20 00:42:41;;;;;;;64.57;9.75;;;;;;;;;;5073237;28;20703;-68
2023/04/20 00:45:08;;;;;;;68.05;9.00;;;;;;;;;;5073533;28;20624;-68
2023/04/20 00:47:37;;;;;;;64.43;9.35;;;;;;;;;;5073324;28;20215;-68
2023/04/20 00:50:04;;;;;;;64.90;8.27;;;;;;;;;;5072857;28;20225;-68
2023/04/20 00:52:31;;;;;;;69.25;8.27;;;;;;;;;;5073172;28;20220;-68
2023/04/20 00:54:59;;;;;;;66.05;9.55;;;;;;;;;;5072961;28;20225;-68
2023/04/20 00:57:27;;;;;;;65.25;9.23;;;;;;;;;;5073218;28;20211;-68
2023/04/20 00:59:54;;;;;;;64.95;9.27;;;;;;;;;;5072753;28;20235;-68
2023/04/20 01:02:21;;;;;;;63.30;8.93;;;;;;;;;;5073132;28;20212;-68
2023/04/20 01:04:49;;;;;;;65.80;8.63;;;;;;;;;;5073026;28;20232;-68
2023/04/20 01:07:17;;;;;;;68.25;11.10;;;;;;;;;;5073035;28;20255;-69
2023/04/20 01:09:44;;;;;;;68.93;11.23;;;;;;;;;;5072254;28;20735;-68
2023/04/20 01:12:11;;;;;;;65.32;9.05;;;;;;;;;;5072799;28;20240;-69
2023/04/20 01:14:38;;;;;;;63.78;9.38;;;;;;;;;;5072774;28;20584;-69
2023/04/20 01:17:05;;;;;;;65.53;9.40;;;;;;;;;;5072637;28;20681;-69
2023/04/20 01:19:33;;;;;;;64.32;9.25;;;;;;;;;;5072478;28;20225;-69
2023/04/20 01:22:01;;;;;;;65.80;10.35;;;;;;;;;;5072572;28;20207;-69
2023/04/20 01:24:30;;;;;;;64.32;9.50;;;;;;;;;;5072314;28;20686;-69
2023/04/20 01:26:57;;;;;;;64.15;9.40;;;;;;;;;;5072760;28;20209;-69
2023/04/20 01:29:24;;;;;;;70.38;9.60;;;;;;;;;;5071869;28;20279;-69
2023/04/20 01:31:51;;;;;;;67.82;10.48;;;;;;;;;;5071447;28;20231;-69
2023/04/20 01:34:19;;;;;;;64.43;9.95;;;;;;;;;;5072636;28;20207;-69
2023/04/20 01:36:46;;;;;;;64.82;9.50;;;;;;;;;;5072458;28;20286;-68
2023/04/20 01:39:13;;;;;;;64.95;9.63;;;;;;;;;;5071359;28;20229;-69
2023/04/20 01:41:42;;;;;;;63.10;8.80;;;;;;;;;;5072267;28;20685;-69
2023/04/20 01:44:09;;;;;;;64.15;8.65;;;;;;;;;;5072084;28;20205;-69
2023/04/20 01:46:38;;;;;;;65.85;11.48;;;;;;;;;;5072565;28;20211;-69
2023/04/20 01:49:05;;;;;;;67.18;11.20;;;;;;;;;;5071902;28;20233;-68
2023/04/20 01:51:32;;;;;;;64.72;10.13;;;;;;;;;;5072243;28;20209;-69
2023/04/20 01:54:00;;;;;;;66.65;9.90;;;;;;;;;;5072072;28;20208;-68
2023/04/20 01:56:27;;;;;;;66.07;10.10;;;;;;;;;;5071936;28;20228;-68
2023/04/20 01:58:55;;;;;;;63.60;8.95;;;;;;;;;;5071563;28;20605;-68
2023/04/20 02:01:22;;;;;;;64.18;9.45;;;;;;;;;;5072150;28;20205;-68
2023/04/20 02:03:50;;;;;;;67.90;11.35;;;;;;;;;;5072100;28;20205;-69
2023/04/20 02:06:17;;;;;;;66.72;9.65;;;;;;;;;;5071874;28;20216;-69
2023/04/20 02:08:44;;;;;;;65.30;10.15;;;;;;;;;;5071551;28;20609;-68
2023/04/20 02:11:11;;;;;;;64.28;9.88;;;;;;;;;;5071819;28;20205;-69
2023/04/20 02:13:39;;;;;;;65.18;9.57;;;;;;;;;;5071772;28;20212;-69
2023/04/20 02:16:07;;;;;;;64.30;8.70;;;;;;;;;;5071706;28;20709;-69
2023/04/20 02:18:34;;;;;;;63.78;8.25;;;;;;;;;;5071475;28;20229;-69
2023/04/20 02:21:02;;;;;;;63.70;7.88;;;;;;;;;;5072145;28;20657;-69
2023/04/20 02:23:29;;;;;;;63.30;9.25;;;;;;;;;;5071664;28;20239;-69
2023/04/20 02:25:56;;;;;;;65.07;9.23;;;;;;;;;;5072119;28;20201;-69
2023/04/20 02:28:23;;;;;;;68.45;9.63;;;;;;;;;;5071947;28;20204;-68
2023/04/20 02:30:51;;;;;;;66.15;9.10;;;;;;;;;;5071546;28;20208;-69
2023/04/20 02:33:19;;;;;;;66.15;8.80;;;;;;;;;;5071755;28;20216;-69
2023/04/20 02:35:47;;;;;;;65.40;9.27;;;;;;;;;;5071513;28;20779;-69
2023/04/20 02:38:14;;;;;;;66.05;9.20;;;;;;;;;;5071359;28;20797;-68
2023/04/20 02:40:41;;;;;;;64.65;8.85;;;;;;;;;;5071718;28;20296;-68
2023/04/20 02:43:08;;;;;;;64.38;8.80;;;;;;;;;;5071325;28;20201;-69
2023/04/20 02:45:36;;;;;;;66.75;9.05;;;;;;;;;;5071687;28;20201;-69
2023/04/20 02:48:03;;;;;;;67.43;9.52;;;;;;;;;;5071430;28;20209;-68
2023/04/20 02:50:31;;;;;;;65.50;9.30;;;;;;;;;;5071649;28;20292;-69
2023/04/20 02:52:58;;;;;;;65.45;10.23;;;;;;;;;;5075603;28;20212;-68
2023/04/20 02:55:26;;;;;;;64.25;9.60;;;;;;;;;;5075767;28;20697;-68
2023/04/20 02:57:53;;;;;;;63.85;9.15;;;;;;;;;;5075390;28;20205;-68
2023/04/20 03:00:20;;;;;;;63.72;8.60;;;;;;;;;;5075062;28;20221;-68
2023/04/20 03:02:47;;;;;;;65.10;9.27;;;;;;;;;;5075739;28;20569;-68
2023/04/20 03:05:15;;;;;;;64.35;9.35;;;;;;;;;;5075240;28;20216;-68
2023/04/20 03:07:43;;;;;;;64.32;9.50;;;;;;;;;;5075136;28;20202;-68
2023/04/20 03:10:11;;;;;;;63.60;8.23;;;;;;;;;;5074554;28;20739;-69
2023/04/20 03:12:38;;;;;;;67.22;8.85;;;;;;;;;;5075109;28;20297;-68
2023/04/20 03:15:06;;;;;;;64.72;9.27;;;;;;;;;;5075089;28;20216;-68
2023/04/20 03:17:33;;;;;;;67.57;10.80;;;;;;;;;;5074975;28;20689;-68
2023/04/20 03:20:00;;;;;;;68.45;9.52;;;;;;;;;;5074413;28;20312;-68
2023/04/20 03:22:27;;;;;;;63.88;9.45;;;;;;;;;;5075103;28;20597;-68
2023/04/20 03:24:56;;;;;;;66.47;8.85;;;;;;;;;;5075069;28;20248;-68
2023/04/20 03:27:23;;;;;;;64.35;10.02;;;;;;;;;;5074888;28;20243;-68
2023/04/20 03:29:51;;;;;;;64.35;9.10;;;;;;;;;;5074461;28;20700;-68
2023/04/20 03:32:18;;;;;;;63.90;8.75;;;;;;;;;;5074623;28;20728;-68
2023/04/20 03:34:45;;;;;;;64.10;9.27;;;;;;;;;;5074573;28;20209;-68
2023/04/20 03:37:12;;;;;;;64.22;8.73;;;;;;;;;;5074738;28;20293;-68
2023/04/20 03:39:39;;;;;;;64.40;8.98;;;;;;;;;;5074233;28;20744;-69
2023/04/20 03:42:08;;;;;;;63.92;8.40;;;;;;;;;;5074670;28;20247;-69
2023/04/20 03:44:35;;;;;;;65.80;9.98;;;;;;;;;;5074945;28;20212;-68
2023/04/20 03:47:02;;;;;;;64.63;8.63;;;;;;;;;;5074468;28;20197;-68
2023/04/20 03:49:30;;;;;;;67.80;10.45;;;;;;;;;;5074280;28;20315;-69
2023/04/20 03:51:57;;;;;;;64.97;9.25;;;;;;;;;;5074677;28;20209;-68
2023/04/20 03:54:24;;;;;;;64.70;9.25;;;;;;;;;;5074469;28;20201;-68
2023/04/20 03:56:51;;;;;;;65.63;9.05;;;;;;;;;;5074541;28;20266;-68
2023/04/20 03:59:20;;;;;;;66.35;9.10;;;;;;;;;;5073871;28;20239;-68
2023/04/20 04:01:47;;;;;;;63.53;8.77;;;;;;;;;;5073534;28;20232;-68
2023/04/20 04:04:14;;;;;;;64.75;9.15;;;;;;;;;;5074328;28;20201;-69
2023/04/20 04:06:41;;;;;;;65.63;10.10;;;;;;;;;;5073994;28;20673;-69
2023/04/20 04:09:08;;;;;;;65.93;9.05;;;;;;;;;;5073802;28;20225;-68
2023/04/20 04:11:35;;;;;;;66.00;9.23;;;;;;;;;;5074170;28;20216;-68
2023/04/20 04:14:04;;;;;;;63.78;9.63;;;;;;;;;;5073974;28;20201;-68
2023/04/20 04:16:32;;;;;;;64.32;8.90;;;;;;;;;;5074191;28;20330;-68
2023/04/20 04:18:59;;;;;;;63.58;9.23;;;;;;;;;;5073643;28;20235;-68
2023/04/20 04:21:27;;;;;;;63.50;8.88;;;;;;;;;;5073798;28;20211;-68
2023/04/20 04:23:54;;;;;;;70.78;9.13;;;;;;;;;;5073647;28;20213;-68
2023/04/20 04:26:23;;;;;;;66.70;10.20;;;;;;;;;;5074196;28;20208;-68
2023/04/20 04:28:50;;;;;;;64.78;9.40;;;;;;;;;;5073218;28;20228;-68
2023/04/20 04:31:18;;;;;;;63.65;9.50;;;;;;;;;;5073812;28;20201;-68
2023/04/20 04:33:46;;;;;;;65.15;9.55;;;;;;;;;;5073785;28;20638;-68
2023/04/20 04:36:14;;;;;;;64.68;10.10;;;;;;;;;;5073542;28;20225;-68
2023/04/20 04:38:43;;;;;;;66.28;10.07;;;;;;;;;;5072962;28;20225;-69
2023/04/20 04:41:10;;;;;;;67.57;10.43;;;;;;;;;;5073268;28;20244;-69
2023/04/20 04:43:38;;;;;;;74.93;9.95;;;;;;;;;;5073616;28;20666;-69
2023/04/20 04:46:09;;;;;;;65.00;9.95;;;;;;;;;;5073369;28;20723;-69
2023/04/20 04:48:37;;;;;;;65.30;11.00;;;;;;;;;;5072940;28;20232;-68
2023/04/20 04:51:05;;;;;;;64.68;10.00;;;;;;;;;;5073270;28;20267;-68
2023/04/20 04:53:32;;;;;;;63.05;9.43;;;;;;;;;;5073625;28;20212;-68
2023/04/20 04:55:59;;;;;;;65.35;10.05;;;;;;;;;;5073385;28;20221;-69
2023/04/20 04:58:27;;;;;;;64.93;9.73;;;;;;;;;;5073193;28;20225;-67
2023/04/20 05:00:54;;;;;;;64.95;10.32;;;;;;;;;;5073159;28;20292;-67
2023/04/20 05:03:21;;;;;;;65.10;9.98;;;;;;;;;;5073307;28;20205;-68
2023/04/20 05:05:48;;;;;;;65.20;9.23;;;;;;;;;;5073008;28;20211;-68
2023/04/20 05:08:17;;;;;;;63.72;9.45;;;;;;;;;;5072816;28;20213;-67
2023/04/20 05:10:44;;;;;;;64.68;10.07;;;;;;;;;;5072894;28;20577;-67
2023/04/20 05:13:11;;;;;;;65.25;9.77;;;;;;;;;;5072129;28;20216;-67
2023/04/20 05:15:38;;;;;;;67.63;10.32;;;;;;;;;;5072909;28;20589;-68
2023/04/20 05:18:05;;;;;;;65.88;9.20;;;;;;;;;;5072680;28;20221;-68
2023/04/20 05:20:32;;;;;;;66.05;9.25;;;;;;;;;;5072349;28;20216;-68
2023/04/20 05:23:00;;;;;;;65.90;9.77;;;;;;;;;;5072671;28;20208;-68
2023/04/20 05:25:28;;;;;;;66.60;9.80;;;;;;;;;;5072459;28;20212;-68
2023/04/20 05:27:55;;;;;;;63.60;9.52;;;;;;;;;;5072719;28;20584;-68
2023/04/20 05:30:22;;;;;;;65.70;10.60;;;;;;;;;;5072336;28;20224;-68
2023/04/20 05:32:50;;;;;;;65.25;10.35;;;;;;;;;;5072650;28;20237;-68
2023/04/20 05:35:17;;;;;;;65.95;10.18;;;;;;;;;;5072256;28;20212;-68
2023/04/20 05:37:46;;;;;;;64.82;9.27;;;;;;;;;;5072504;28;20244;-68
2023/04/20 05:40:14;;;;;;;66.30;10.68;;;;;;;;;;5072104;28;20234;-68
2023/04/20 05:42:42;;;;;;;64.00;9.35;;;;;;;;;;5072358;28;20205;-68
2023/04/20 05:45:10;;;;;;;67.80;10.07;;;;;;;;;;5072511;28;20200;-68
2023/04/20 05:47:37;;;;;;;66.70;11.07;;;;;;;;;;5072184;28;20280;-68
2023/04/20 05:50:04;;;;;;;65.30;11.30;;;;;;;;;;5071673;28;20225;-68
2023/04/20 05:52:31;;;;;;;69.93;11.18;;;;;;;;;;5072250;28;20295;-68
2023/04/20 05:54:59;;;;;;;64.78;10.70;;;;;;;;;;5072254;28;20295;-68
2023/04/20 05:57:26;;;;;;;65.18;10.38;;;;;;;;;;5071965;28;20665;-68
2023/04/20 05:59:55;;;;;;;65.70;10.25;;;;;;;;;;5071750;28;20231;-68
2023/04/20 06:02:22;;;;;;;66.07;10.57;;;;;;;;;;5071951;28;20266;-68
2023/04/20 06:04:49;;;;;;;70.25;10.93;;;;;;;;;;5072110;28;20202;-68
2023/04/20 06:07:16;;;;;;;71.50;12.52;;;;;;;;;;5071869;28;20201;-68
2023/04/20 06:09:43;;;;;;;64.70;11.00;;;;;;;;;;5071940;28;20597;-68
2023/04/20 06:12:10;;;;;;;66.13;10.48;;;;;;;;;;5071962;28;20227;-68
2023/04/20 06:14:37;;;;;;;65.18;11.27;;;;;;;;;;5071843;28;20219;-68
2023/04/20 06:17:06;;;;;;;66.68;12.30;;;;;;;;;;5071637;28;20216;-68
2023/04/20 06:19:33;;;;;;;66.07;11.10;;;;;;;;;;5071520;28;20309;-68
2023/04/20 06:22:00;;;;;;;67.93;11.18;;;;;;;;;;5071850;28;20234;-68
2023/04/20 06:24:27;;;;;;;68.43;12.27;;;;;;;;;;5071371;28;20233;-68
2023/04/20 06:26:56;;;;;;;68.00;10.75;;;;;;;;;;5071655;28;20224;-68
2023/04/20 06:29:23;;;;;;;70.07;12.10;;;;;;;;;;5071421;28;20232;-68
2023/04/20 06:31:50;;;;;;;68.35;11.63;;;;;;;;;;5071588;28;20207;-68
2023/04/20 06:34:18;;;;;;;66.47;11.63;;;;;;;;;;5071598;28;20212;-68
2023/04/20 06:36:46;;;;;;;67.15;12.13;;;;;;;;;;5071967;28;20323;-68
2023/04/20 06:39:13;;;;;;;65.25;11.40;;;;;;;;;;5071219;28;20229;-68
2023/04/20 06:41:40;;;;;;;66.53;12.02;;;;;;;;;;5071623;28;20216;-68
2023/04/20 06:44:07;;;;;;;65.80;11.50;;;;;;;;;;5071683;28;20205;-68
2023/04/20 06:46:34;;;;;;;70.07;12.43;;;;;;;;;;5071682;28;20201;-68
2023/04/20 06:49:02;;;;;;;67.43;12.55;;;;;;;;;;5071227;28;20225;-68
2023/04/20 06:51:30;;;;;;;67.88;12.40;;;;;;;;;;5071976;28;20211;-67
2023/04/20 06:53:57;;;;;;;66.63;10.95;;;;;;;;;;5071571;28;20215;-67
2023/04/20 06:56:24;;;;;;;66.90;10.93;;;;;;;;;;5071345;28;20211;-67
2023/04/20 06:58:51;;;;;;;69.70;12.27;;;;;;;;;;5070897;28;20236;-67
2023/04/20 07:01:19;;;;;;;66.95;10.35;;;;;;;;;;5071563;28;20589;-68
2023/04/20 07:03:46;;;;;;;67.72;11.70;;;;;;;;;;5071464;28;20557;-67
2023/04/20 07:06:14;;;;;;;65.63;10.63;;;;;;;;;;5071302;28;20243;-67
2023/04/20 07:08:43;;;;;;;66.85;10.85;;;;;;;;;;5070967;28;20579;-67
2023/04/20 07:11:10;;;;;;;71.45;11.07;;;;;;;;;;5071271;28;20209;-67
2023/04/20 07:13:37;;;;;;;70.28;11.18;;;;;;;;;;5071315;28;20295;-67
2023/04/20 07:16:04;;;;;;;66.78;10.10;;;;;;;;;;5071374;28;20231;-67
2023/04/20 07:18:31;;;;;;;65.50;10.25;;;;;;;;;;5071021;28;20240;-67
2023/04/20 07:20:58;;;;;;;65.75;9.70;;;;;;;;;;5071371;28;20678;-67
2023/04/20 07:23:25;;;;;;;70.28;11.10;;;;;;;;;;5071207;28;20217;-67
2023/04/20 07:25:54;;;;;;;64.87;9.63;;;;;;;;;;5071109;28;20211;-67
2023/04/20 07:28:21;;;;;;;66.45;10.35;;;;;;;;;;5071197;28;20450;-67
2023/04/20 07:30:48;;;;;;;65.47;11.37;;;;;;;;;;5071095;28;20231;-67
2023/04/20 07:33:15;;;;;;;66.03;10.80;;;;;;;;;;5071013;28;20459;-67
2023/04/20 07:35:42;;;;;;;70.95;11.70;;;;;;;;;;5071221;28;20474;-68
2023/04/20 07:38:09;;;;;;;67.90;10.20;;;;;;;;;;5073528;28;20221;-68
2023/04/20 07:40:36;;;;;;;64.70;10.30;;;;;;;;;;5074528;28;20447;-68
2023/04/20 07:43:05;;;;;;;66.07;9.80;;;;;;;;;;5074492;28;20454;-67
2023/04/20 07:45:32;;;;;;;63.90;9.07;;;;;;;;;;5074577;28;20454;-68
2023/04/20 07:48:00;;;;;;;64.90;8.20;;;;;;;;;;5074609;28;20483;-68
2023/04/20 07:50:27;;;;;;;64.90;8.53;;;;;;;;;;5074087;28;20472;-68
2023/04/20 07:52:54;;;;;;;63.57;8.57;;;;;;;;;;5074328;28;20815;-68
2023/04/20 07:55:21;;;;;;;64.70;9.30;;;;;;;;;;5074522;28;20448;-70
2023/04/20 07:57:49;;;;;;;63.03;8.53;;;;;;;;;;5074419;28;20483;-68
2023/04/20 08:00:18;;;;;;;63.37;8.27;;;;;;;;;;5073952;28;20909;-68
2023/04/20 08:02:45;;;;;;;62.47;8.20;;;;;;;;;;5074222;28;20454;-68
2023/04/20 08:05:12;;;;;;;61.97;8.40;;;;;;;;;;5074152;28;20969;-68
2023/04/20 08:07:39;;;;;;;64.00;9.20;;;;;;;;;;5074258;28;20463;-68
2023/04/20 08:10:06;;;;;;;64.50;8.73;;;;;;;;;;5073957;28;20468;-68
2023/04/20 08:12:34;;;;;;;65.07;9.60;;;;;;;;;;5074163;28;20449;-68
2023/04/20 08:15:05;;;;;;;65.90;10.30;;;;;;;;;;5074046;28;20903;-68
2023/04/20 08:17:33;;;;;;;63.47;8.60;;;;;;;;;;5073884;28;20489;-68
2023/04/20 08:20:01;;;;;;;63.17;8.90;;;;;;;;;;5073364;28;20474;-68
2023/04/20 08:22:28;;;;;;;62.70;8.63;;;;;;;;;;5073996;28;20446;-68
2023/04/20 08:24:56;;;;;;;65.27;10.30;;;;;;;;;;5073780;28;20460;-68
2023/04/20 08:27:23;;;;;;;65.30;9.40;;;;;;;;;;5073964;28;20815;-68
2023/04/20 08:29:50;;;;;;;64.47;9.77;;;;;;;;;;5073571;28;20495;-68
2023/04/20 08:32:17;;;;;;;65.47;8.87;;;;;;;;;;5074370;28;20530;-68
2023/04/20 08:34:46;;;;;;;63.70;9.37;;;;;;;;;;5073557;28;20808;-68
2023/04/20 08:37:13;;;;;;;67.43;9.80;;;;;;;;;;5073441;28;21027;-68
2023/04/20 08:39:40;;;;;;;66.23;9.10;;;;;;;;;;5073262;28;20464;-68
2023/04/20 08:42:07;;;;;;;67.00;10.27;;;;;;;;;;5073470;28;20943;-68
2023/04/20 08:44:34;;;;;;;64.60;10.33;;;;;;;;;;5073430;28;20447;-68
2023/04/20 08:47:01;;;;;;;66.97;9.47;;;;;;;;;;5073249;28;20456;-68
2023/04/20 08:49:29;;;;;;;66.80;9.67;;;;;;;;;;5073018;28;20834;-68
2023/04/20 08:51:58;;;;;;;64.70;9.60;;;;;;;;;;5073372;28;20447;-68
2023/04/20 08:54:25;;;;;;;70.57;10.20;;;;;;;;;;5073320;28;20451;-69
2023/04/20 08:56:52;;;;;;;65.27;9.97;;;;;;;;;;5073248;28;20452;-68
2023/04/20 08:59:19;;;;;;;65.40;9.80;;;;;;;;;;5072645;28;20477;-69
2023/04/20 09:01:46;;;;;;;63.07;8.47;;;;;;;;;;5072969;28;20958;-69
2023/04/20 09:04:17;;;;;;;66.63;9.57;;;;;;;;;;5073206;28;20440;-69
2023/04/20 09:06:44;;;;;;;63.80;8.67;;;;;;;;;;5073231;28;20473;-68
2023/04/20 09:09:12;;;;;;;65.23;9.03;;;;;;;;;;5072468;28;20991;-68
2023/04/20 09:11:40;;;;;;;70.40;8.97;;;;;;;;;;5072927;28;20443;-69
2023/04/20 09:14:11;;;;;;;69.37;9.70;;;;;;;;;;5072661;28;20845;-68
2023/04/20 09:16:38;;;;;;;67.10;9.40;;;;;;;;;;5073026;28;20455;-68
2023/04/20 09:19:06;;;;;;;65.60;9.43;;;;;;;;;;5072403;28;20498;-69
2023/04/20 09:21:33;;;;;;;67.17;10.67;;;;;;;;;;5072928;28;20451;-68
2023/04/20 09:24:01;;;;;;;67.20;9.30;;;;;;;;;;5072509;28;20463;-69
2023/04/20 09:26:32;;;;;;;69.90;10.20;;;;;;;;;;5072447;28;20952;-69
2023/04/20 09:28:59;;;;;;;65.40;10.57;;;;;;;;;;5072241;28;20463;-68
2023/04/20 09:31:27;;;;;;;65.80;9.30;;;;;;;;;;5072700;28;20443;-69
2023/04/20 09:33:58;;;;;;;65.63;9.60;;;;;;;;;;5072510;28;20443;-68
2023/04/20 09:36:26;;;;;;;68.97;9.30;;;;;;;;;;5072402;28;20473;-69
2023/04/20 09:39:03;;;;;;;63.80;8.57;;;;;;;;;;5072022;28;20573;-69
2023/04/20 09:41:33;;;;;;;65.37;8.80;;;;;;;;;;5072065;28;20453;-68
2023/04/20 09:44:00;;;;;;;70.13;9.10;;;;;;;;;;5072382;28;20450;-68
2023/04/20 09:46:30;;;;;;;64.77;9.47;;;;;;;;;;5072407;28;20855;-69
2023/04/20 09:48:58;;;;;;;67.47;9.90;;;;;;;;;;5071913;28;20468;-69
2023/04/20 09:51:26;;;;;;;69.37;9.70;;;;;;;;;;5072185;28;20492;-69
2023/04/20 09:53:54;;;;;;;67.80;9.20;;;;;;;;;;5072018;28;20549;-69
2023/04/20 09:56:22;;;;;;;68.90;9.57;;;;;;;;;;5072081;28;20443;-69
2023/04/20 09:58:51;;;;;;;66.53;9.33;;;;;;;;;;5071666;28;20492;-68
2023/04/20 10:01:18;;;;;;;66.10;10.20;;;;;;;;;;5071697;28;20496;-68
2023/04/20 10:03:46;;;;;;;64.80;8.97;;;;;;;;;;5072052;28;20462;-69
2023/04/20 10:06:19;;;;;;;65.10;10.37;;;;;;;;;;5071887;28;20449;-69
2023/04/20 10:08:47;;;;;;;64.63;9.33;;;;;;;;;;5071526;28;20976;-69
2023/04/20 10:11:24;;;;;;;66.57;9.20;;;;;;;;;;5072010;28;20474;-69
2023/04/20 10:13:53;;;;;;;67.73;9.77;;;;;;;;;;5071953;28;20447;-69
2023/04/20 10:16:21;;;;;;;63.37;8.80;;;;;;;;;;5071905;28;20454;-69
2023/04/20 10:18:56;;;;;;;63.87;8.67;;;;;;;;;;5071287;28;20491;-69
2023/04/20 10:21:23;;;;;;;65.30;9.40;;;;;;;;;;5072031;28;20447;-69
2023/04/20 10:23:51;;;;;;;65.40;9.03;;;;;;;;;;5071656;28;20974;-69
2023/04/20 10:26:19;;;;;;;66.03;10.17;;;;;;;;;;5071917;28;20547;-69
2023/04/20 10:28:46;;;;;;;68.17;9.90;;;;;;;;;;5071335;28;20471;-69
2023/04/20 10:31:15;;;;;;;65.90;11.03;;;;;;;;;;5071566;28;20447;-69
2023/04/20 10:33:49;;;;;;;65.90;9.53;;;;;;;;;;5071910;28;20451;-69
2023/04/20 10:36:23;;;;;;;65.70;8.90;;;;;;;;;;5071759;28;20454;-69
2023/04/20 10:38:50;;;;;;;64.30;9.10;;;;;;;;;;5071160;28;20491;-69
2023/04/20 10:41:17;;;;;;;66.03;8.80;;;;;;;;;;5071532;28;20970;-69
2023/04/20 10:43:44;;;;;;;61.57;7.53;;;;;;;;;;5071448;28;20444;-69
2023/04/20 10:46:17;;;;;;;63.87;8.73;;;;;;;;;;5071741;28;20447;-69
2023/04/20 10:48:54;;;;;;;61.47;7.60;;;;;;;;;;5071198;28;20463;-69
2023/04/20 10:51:22;;;;;;;62.77;7.63;;;;;;;;;;5071574;28;20453;-69
2023/04/20 10:53:58;;;;;;;62.97;8.23;;;;;;;;;;5071530;28;20443;-69
2023/04/20 10:56:25;;;;;;;62.60;7.80;;;;;;;;;;5071709;28;20797;-69
2023/04/20 10:58:53;;;;;;;62.70;7.60;;;;;;;;;;5071340;28;20483;-69
2023/04/20 11:01:21;;;;;;;62.33;6.80;;;;;;;;;;5071548;28;20447;-69
2023/04/20 11:03:51;;;;;;;61.90;8.03;;;;;;;;;;5071702;28;20538;-69
2023/04/20 11:06:19;;;;;;;62.53;8.37;;;;;;;;;;5071825;28;20451;-69
2023/04/20 11:08:46;;;;;;;64.20;10.73;;;;;;;;;;5070846;28;20464;-69
2023/04/20 11:11:20;;;;;;;62.60;8.93;;;;;;;;;;5071520;28;20882;-69
2023/04/20 11:13:47;;;;;;;71.60;9.90;;;;;;;;;;5075158;28;20963;-69
2023/04/20 11:16:15;;;;;;;66.27;9.80;;;;;;;;;;5075003;28;21037;-68
2023/04/20 11:19:00;;;;;;;63.60;9.17;;;;;;;;;;5074642;28;20573;-69
2023/04/20 11:21:37;;;;;;;64.97;9.77;;;;;;;;;;5074992;28;20923;-69
2023/04/20 11:24:04;;;;;;;64.53;9.57;;;;;;;;;;5075249;28;20546;-69
2023/04/20 11:26:35;;;;;;;66.20;10.00;;;;;;;;;;5074750;28;20443;-69
2023/04/20 11:29:02;;;;;;;64.10;9.00;;;;;;;;;;5074476;28;20455;-69
2023/04/20 11:31:29;;;;;;;66.73;11.23;;;;;;;;;;5074800;28;20439;-69
2023/04/20 11:33:56;;;;;;;63.80;8.80;;;;;;;;;;5074918;28;20439;-70
2023/04/20 11:36:25;;;;;;;62.90;8.83;;;;;;;;;;5075088;28;20443;-69
2023/04/20 11:38:54;;;;;;;61.77;8.13;;;;;;;;;;5074096;28;20483;-69
2023/04/20 11:41:22;;;;;;;63.10;9.10;;;;;;;;;;5074536;28;20955;-69
2023/04/20 11:43:50;;;;;;;63.03;9.13;;;;;;;;;;5074630;28;20969;-68
2023/04/20 11:46:17;;;;;;;76.40;18.57;;;;;;;;;;5074397;28;20948;-69
2023/04/20 11:48:45;;;;;;;63.80;9.10;;;;;;;;;;5074304;28;20464;-69
2023/04/20 11:51:12;;;;;;;64.77;9.67;;;;;;;;;;5074502;28;20963;-69
2023/04/20 11:53:39;;;;;;;65.27;9.43;;;;;;;;;;5074537;28;20450;-68
2023/04/20 11:56:08;;;;;;;62.90;9.43;;;;;;;;;;5074462;28;20943;-70
2023/04/20 11:58:36;;;;;;;64.00;9.40;;;;;;;;;;5073783;28;20490;-69
2023/04/20 12:01:04;;;;;;;64.40;9.37;;;;;;;;;;5074173;28;20959;-69
2023/04/20 12:03:32;;;;;;;64.40;8.90;;;;;;;;;;5074605;28;20814;-69
2023/04/20 12:05:59;;;;;;;64.47;9.60;;;;;;;;;;5074369;28;20508;-69
2023/04/20 12:08:26;;;;;;;63.80;8.70;;;;;;;;;;5074206;28;20473;-69
2023/04/20 12:10:53;;;;;;;63.87;9.57;;;;;;;;;;5073986;28;20839;-69
2023/04/20 12:13:22;;;;;;;63.10;8.87;;;;;;;;;;5074001;28;20452;-69
2023/04/20 12:15:49;;;;;;;64.07;9.10;;;;;;;;;;5074243;28;20474;-69
2023/04/20 12:18:16;;;;;;;65.10;9.40;;;;;;;;;;5073861;28;20475;-69
2023/04/20 12:20:44;;;;;;;65.97;9.70;;;;;;;;;;5073794;28;20821;-69
2023/04/20 12:23:11;;;;;;;64.07;9.03;;;;;;;;;;5073486;28;20447;-69
2023/04/20 12:25:38;;;;;;;64.20;9.13;;;;;;;;;;5074015;28;20439;-69
2023/04/20 12:28:06;;;;;;;65.57;9.73;;;;;;;;;;5073744;28;20440;-69
2023/04/20 12:30:35;;;;;;;66.50;9.37;;;;;;;;;;5073756;28;20459;-69
2023/04/20 12:33:02;;;;;;;62.27;8.47;;;;;;;;;;5073822;28;20451;-69
2023/04/20 12:35:29;;;;;;;63.97;8.53;;;;;;;;;;5073715;28;20443;-69
2023/04/20 12:37:56;;;;;;;62.03;8.80;;;;;;;;;;5073552;28;20443;-69
2023/04/20 12:40:24;;;;;;;65.07;8.90;;;;;;;;;;5073414;28;20483;-69
2023/04/20 12:42:51;;;;;;;66.30;9.20;;;;;;;;;;5073226;28;20453;-69
2023/04/20 12:45:18;;;;;;;64.60;8.10;;;;;;;;;;5073656;28;20444;-69
2023/04/20 12:47:46;;;;;;;62.50;8.30;;;;;;;;;;5073514;28;20447;-69
2023/04/20 12:50:14;;;;;;;62.47;7.97;;;;;;;;;;5073020;28;20831;-69
2023/04/20 12:52:41;;;;;;;65.00;8.87;;;;;;;;;;5073223;28;20982;-69
2023/04/20 12:55:08;;;;;;;61.43;8.07;;;;;;;;;;5073276;28;20454;-69
2023/04/20 12:57:35;;;;;;;61.37;7.50;;;;;;;;;;5073463;28;20877;-69
2023/04/20 13:00:04;;;;;;;62.70;8.00;;;;;;;;;;5072598;28;21107;-69
2023/04/20 13:02:31;;;;;;;62.27;7.57;;;;;;;;;;5073273;28;20827;-68
2023/04/20 13:04:59;;;;;;;62.37;7.50;;;;;;;;;;5073070;28;20443;-69
2023/04/20 13:07:27;;;;;;;60.87;6.80;;;;;;;;;;5072880;28;20439;-69
2023/04/20 13:09:54;;;;;;;64.70;7.20;;;;;;;;;;5072704;28;20870;-68
2023/04/20 13:12:21;;;;;;;62.50;7.23;;;;;;;;;;5072792;28;20451;-69
2023/04/20 13:14:48;;;;;;;61.87;7.70;;;;;;;;;;5072837;28;20451;-69
2023/04/20 13:17:15;;;;;;;63.30;7.57;;;;;;;;;;5072644;28;20974;-68
2023/04/20 13:19:42;;;;;;;62.73;7.83;;;;;;;;;;5072241;28;20485;-68
2023/04/20 13:22:11;;;;;;;61.97;7.47;;;;;;;;;;5072550;28;20478;-68
2023/04/20 13:24:38;;;;;;;62.80;8.10;;;;;;;;;;5072533;28;20467;-68
2023/04/20 13:27:05;;;;;;;61.87;8.43;;;;;;;;;;5072685;28;20447;-68
2023/04/20 13:29:32;;;;;;;62.97;8.20;;;;;;;;;;5072432;28;20464;-69
2023/04/20 13:31:59;;;;;;;63.43;8.70;;;;;;;;;;5072559;28;20454;-68
2023/04/20 13:34:27;;;;;;;63.90;8.10;;;;;;;;;;5071799;28;20443;-68
2023/04/20 13:36:54;;;;;;;63.83;7.63;;;;;;;;;;5072263;28;20454;-68
2023/04/20 13:39:22;;;;;;;65.10;8.43;;;;;;;;;;5071953;28;20487;-68
2023/04/20 13:41:49;;;;;;;63.97;8.40;;;;;;;;;;5072408;28;20448;-68
2023/04/20 13:44:17;;;;;;;63.20;8.30;;;;;;;;;;5072362;28;20493;-69
2023/04/20 13:46:44;;;;;;;63.80;8.00;;;;;;;;;;5072333;28;20470;-69
2023/04/20 13:49:11;;;;;;;62.60;7.70;;;;;;;;;;5071680;28;21113;-68
2023/04/20 13:51:39;;;;;;;67.00;8.63;;;;;;;;;;5072339;28;20448;-68
2023/04/20 13:54:06;;;;;;;61.60;7.33;;;;;;;;;;5072173;28;20458;-68
2023/04/20 13:56:35;;;;;;;66.40;8.80;;;;;;;;;;5071944;28;20936;-69
2023/04/20 13:59:03;;;;;;;62.10;7.30;;;;;;;;;;5071603;28;20487;-68
2023/04/20 14:01:30;;;;;;;62.10;7.73;;;;;;;;;;5071962;28;20512;-68
2023/04/20 14:03:57;;;;;;;62.77;7.57;;;;;;;;;;5072066;28;20462;-69
2023/04/20 14:06:25;;;;;;;62.67;8.13;;;;;;;;;;5072128;28;20451;-69
2023/04/20 14:08:52;;;;;;;62.93;7.40;;;;;;;;;;5071782;28;20899;-69
2023/04/20 14:11:19;;;;;;;61.67;7.57;;;;;;;;;;5071946;28;20451;-69
2023/04/20 14:13:48;;;;;;;62.87;7.90;;;;;;;;;;5072119;28;20478;-69
2023/04/20 14:16:15;;;;;;;61.60;7.80;;;;;;;;;;5071688;28;20452;-68
2023/04/20 14:18:42;;;;;;;61.20;7.20;;;;;;;;;;5071535;28;20575;-68
2023/04/20 14:21:09;;;;;;;61.90;7.00;;;;;;;;;;5071653;28;20951;-69
2023/04/20 14:23:36;;;;;;;61.90;6.73;;;;;;;;;;5071762;28;20459;-68
2023/04/20 14:26:04;;;;;;;61.20;7.33;;;;;;;;;;5071942;28;20454;-69
2023/04/20 14:28:31;;;;;;;61.00;6.90;;;;;;;;;;5071459;28;20828;-68